Time;durP1;ratioP1;P1;durP2;ratioP2;P2;SDS_P1;SDS_P2;PMS_P1;PMS_P2;Temp;Humidity;BMP_temperature;BMP_pressure;BME280_temperature;BME280_humidity;BME280_pressure;Samples;Min_cycle;Max_cycle;Signal;HPM_P1;HPM_P2
2022/05/29 00:01:26;;;;;;;;;;;;;;;;;;5072308;28;1341;-68
2022/05/29 00:03:52;;;;;;;;;;;;;;;;;;5072658;28;1914;-68
2022/05/29 00:06:18;;;;;;;;;;;;;;;;;;5071551;28;1134;-68
2022/05/29 00:08:46;;;;;;;;;;;;;;;;;;5071938;28;1075;-69
2022/05/29 00:11:13;;;;;;;;;;;;;;;;;;5072364;28;1317;-68
2022/05/29 00:13:39;;;;;;;;;;;;;;;;;;5072099;28;953;-68
2022/05/29 00:16:05;;;;;;;;;;;;;;;;;;5072001;28;1393;-68
2022/05/29 00:18:32;;;;;;;;;;;;;;;;;;5054634;28;1244;-68
2022/05/29 00:20:58;;;;;;;;;;;;;;;;;;5071951;28;1357;-68
2022/05/29 00:23:24;;;;;;;;;;;;;;;;;;5071976;28;1914;-68
2022/05/29 00:25:52;;;;;;;;;;;;;;;;;;5071907;28;1468;-68
2022/05/29 00:28:18;;;;;;;;;;;;;;;;;;5072232;28;1280;-68
2022/05/29 00:30:45;;;;;;;;;;;;;;;;;;5072115;28;1301;-68
2022/05/29 00:33:11;;;;;;;;;;;;;;;;;;5072171;28;1126;-68
2022/05/29 00:35:39;;;;;;;;;;;;;;;;;;5071909;28;834;-68
2022/05/29 00:38:05;;;;;;;;;;;;;;;;;;5071468;28;821;-68
2022/05/29 00:40:32;;;;;;;;;;;;;;;;;;5071691;28;1416;-68
2022/05/29 00:43:00;;;;;;;;;;;;;;;;;;5071695;28;1914;-68
2022/05/29 00:45:26;;;;;;;;;;;;;;;;;;5074845;28;940;-68
2022/05/29 00:47:53;;;;;;;;;;;;;;;;;;5079384;28;888;-68
2022/05/29 00:50:19;;;;;;;;;;;;;;;;;;5071848;28;1301;-68
2022/05/29 00:52:45;;;;;;;;;;;;;;;;;;5071512;28;896;-68
2022/05/29 00:55:13;;;;;;;;;;;;;;;;;;5071212;28;949;-68
2022/05/29 00:57:41;;;;;;;;;;;;;;;;;;5070273;28;1425;-68
2022/05/29 01:00:13;;;;;;;;;;;;;;;;;;5071354;28;1427;-68
2022/05/29 01:02:39;;;;;;;;;;;;;;;;;;5071371;28;1941;-68
2022/05/29 01:05:06;;;;;;;;;;;;;;;;;;5053421;28;1304;-68
2022/05/29 01:07:32;;;;;;;;;;;;;;;;;;5069715;28;1261;-68
2022/05/29 01:09:59;;;;;;;;;;;;;;;;;;5071292;28;1420;-68
2022/05/29 01:12:31;;;;;;;;;;;;;;;;;;5070060;28;1668;-68
2022/05/29 01:14:59;;;;;;;;;;;;;;;;;;5068245;28;1138;-69
2022/05/29 01:17:29;;;;;;;;;;;;;;;;;;5061410;28;1436;-68
2022/05/29 01:20:10;;;;;;;;;;;;;;;;;;5060832;28;1385;-68
2022/05/29 01:22:42;;;;;;;;;;;;;;;;;;5069000;28;1256;-69
2022/05/29 01:25:29;;;;;;;;;;;;;;;;;;5068731;28;1310;-69
2022/05/29 01:28:16;;;;;;;;;;;;;;;;;;5035535;28;1276;-69
2022/05/29 01:30:45;;;;;;;;;;;;;;;;;;5065931;28;1334;-69
2022/05/29 01:33:13;;;;;;;;;;;;;;;;;;5070824;28;1071;-69
2022/05/29 01:35:42;;;;;;;;;;;;;;;;;;5070972;28;961;-69
2022/05/29 01:38:09;;;;;;;;;;;;;;;;;;5070606;28;1134;-69
2022/05/29 01:40:36;;;;;;;;;;;;;;;;;;5070585;28;1298;-69
2022/05/29 01:43:03;;;;;;;;;;;;;;;;;;5070647;28;1918;-69
2022/05/29 01:45:30;;;;;;;;;;;;;;;;;;5052808;28;1052;-69
2022/05/29 01:47:59;;;;;;;;;;;;;;;;;;5070499;28;1139;-69
2022/05/29 01:50:26;;;;;;;;;;;;;;;;;;5069907;28;1300;-69
2022/05/29 01:52:53;;;;;;;;;;;;;;;;;;5070624;28;1067;-69
2022/05/29 01:55:21;;;;;;;;;;;;;;;;;;5070971;28;1071;-69
2022/05/29 01:57:48;;;;;;;;;;;;;;;;;;5053139;28;1269;-69
2022/05/29 02:00:17;;;;;;;;;;;;;;;;;;5070671;28;1365;-69
2022/05/29 02:02:44;;;;;;;;;;;;;;;;;;5070941;28;1068;-70
2022/05/29 02:05:12;;;;;;;;;;;;;;;;;;5070858;28;1983;-67
2022/05/29 02:07:50;;;;;;;;;;;;;;;;;;5070077;28;1128;-70
2022/05/29 02:10:19;;;;;;;;;;;;;;;;;;5070122;28;1305;-70
2022/05/29 02:12:46;;;;;;;;;;;;;;;;;;5070448;28;1115;-69
2022/05/29 02:15:12;;;;;;;;;;;;;;;;;;5070613;28;814;-70
2022/05/29 02:17:40;;;;;;;;;;;;;;;;;;5070292;28;1130;-69
2022/05/29 02:20:08;;;;;;;;;;;;;;;;;;5065987;28;2304;-68
2022/05/29 02:22:35;;;;;;;;;;;;;;;;;;5078698;28;1772;-68
2022/05/29 02:25:03;;;;;;;;;;;;;;;;;;5083976;28;2155;-68
2022/05/29 02:27:31;;;;;;;;;;;;;;;;;;5086019;28;1007;-68
2022/05/29 02:29:57;;;;;;;;;;;;;;;;;;5082400;28;1388;-68
2022/05/29 02:32:25;;;;;;;;;;;;;;;;;;5076302;28;1124;-68
2022/05/29 02:34:52;;;;;;;;;;;;;;;;;;5086936;22;3584;-73
2022/05/29 02:37:20;;;;;;;;;;;;;;;;;;5084778;28;1042;-73
2022/05/29 02:39:51;;;;;;;;;;;;;;;;;;5084570;28;1099;-70
2022/05/29 02:42:20;;;;;;;;;;;;;;;;;;5074050;28;1185;-71
2022/05/29 02:44:47;;;;;;;;;;;;;;;;;;5074014;28;1918;-71
2022/05/29 02:47:17;;;;;;;;;;;;;;;;;;5072810;28;2067;-73
2022/05/29 02:49:44;;;;;;;;;;;;;;;;;;5073792;28;1053;-71
2022/05/29 02:52:12;;;;;;;;;;;;;;;;;;5073949;28;1106;-72
2022/05/29 02:54:38;;;;;;;;;;;;;;;;;;5073759;28;1282;-74
2022/05/29 02:57:06;;;;;;;;;;;;;;;;;;5073429;28;1111;-72
2022/05/29 02:59:33;;;;;;;;;;;;;;;;;;5073739;28;980;-72
2022/05/29 03:02:01;;;;;;;;;;;;;;;;;;5072334;28;1278;-72
2022/05/29 03:04:30;;;;;;;;;;;;;;;;;;5072503;28;1914;-72
2022/05/29 03:06:58;;;;;;;;;;;;;;;;;;5072279;28;2020;-72
2022/05/29 03:09:30;;;;;;;;;;;;;;;;;;5073576;28;1066;-71
2022/05/29 03:11:56;;;;;;;;;;;;;;;;;;5073368;28;1059;-71
2022/05/29 03:14:28;;;;;;;;;;;;;;;;;;5073206;28;1056;-72
2022/05/29 03:16:57;;;;;;;;;;;;;;;;;;5073219;28;1071;-72
2022/05/29 03:19:26;;;;;;;;;;;;;;;;;;5073547;28;902;-71
2022/05/29 03:21:55;;;;;;;;;;;;;;;;;;5073219;28;944;-72
2022/05/29 03:24:23;;;;;;;;;;;;;;;;;;5073135;28;1918;-72
2022/05/29 03:26:53;;;;;;;;;;;;;;;;;;5072985;28;1308;-71
2022/05/29 03:29:20;;;;;;;;;;;;;;;;;;5073186;28;1100;-71
2022/05/29 03:31:47;;;;;;;;;;;;;;;;;;5073068;28;1170;-71
2022/05/29 03:34:14;;;;;;;;;;;;;;;;;;5071552;28;1297;-71
2022/05/29 03:36:44;;;;;;;;;;;;;;;;;;5072836;28;1360;-71
2022/05/29 03:39:10;;;;;;;;;;;;;;;;;;5072938;28;945;-71
2022/05/29 03:41:39;;;;;;;;;;;;;;;;;;5070553;28;1511;-74
2022/05/29 03:44:05;;;;;;;;;;;;;;;;;;5069728;28;1913;-74
2022/05/29 03:46:31;;;;;;;;;;;;;;;;;;5064559;28;1341;-74
2022/05/29 03:48:59;;;;;;;;;;;;;;;;;;5072989;28;1216;-74
2022/05/29 03:51:25;;;;;;;;;;;;;;;;;;5073160;28;786;-73
2022/05/29 03:53:51;;;;;;;;;;;;;;;;;;5071265;28;1403;-73
2022/05/29 03:56:17;;;;;;;;;;;;;;;;;;5070903;28;1380;-73
2022/05/29 03:58:44;;;;;;;;;;;;;;;;;;5073824;28;1434;-73
2022/05/29 04:01:10;;;;;;;;;;;;;;;;;;5067260;28;1429;-73
2022/05/29 04:03:36;;;;;;;;;;;;;;;;;;5075220;28;1976;-73
2022/05/29 04:06:03;;;;;;;;;;;;;;;;;;5071219;28;1474;-74
2022/05/29 04:14:12;;;;;;;;;;;;;;;;;;5029996;28;996;-74
2022/05/29 04:16:39;;;;;;;;;;;;;;;;;;5045853;28;1483;-75
2022/05/29 04:19:05;;;;;;;;;;;;;;;;;;5062410;28;1693;-74
2022/05/29 04:21:33;;;;;;;;;;;;;;;;;;5060093;28;1487;-72
2022/05/29 04:23:59;;;;;;;;;;;;;;;;;;5069960;28;1967;-74
2022/05/29 04:26:26;;;;;;;;;;;;;;;;;;5071002;28;1489;-74
2022/05/29 04:28:52;;;;;;;;;;;;;;;;;;5071115;28;1711;-75
2022/05/29 04:31:18;;;;;;;;;;;;;;;;;;5079373;28;2174;-74
2022/05/29 04:33:43;;;;;;;;;;;;;;;;;;5086750;28;1568;-72
2022/05/29 04:36:09;;;;;;;;;;;;;;;;;;5082377;28;1415;-73
2022/05/29 04:38:37;;;;;;;;;;;;;;;;;;5071721;28;1463;-73
2022/05/29 04:41:05;;;;;;;;;;;;;;;;;;5071886;28;1130;-73
2022/05/29 04:43:32;;;;;;;;;;;;;;;;;;5072075;28;1451;-74
2022/05/29 04:45:58;;;;;;;;;;;;;;;;;;5068719;28;1910;-74
2022/05/29 04:48:24;;;;;;;;;;;;;;;;;;5071239;28;1251;-73
2022/05/29 04:50:55;;;;;;;;;;;;;;;;;;5059956;28;1565;-74
2022/05/29 04:53:21;;;;;;;;;;;;;;;;;;5061701;28;1372;-73
2022/05/29 04:55:51;;;;;;;;;;;;;;;;;;5069589;28;1411;-73
2022/05/29 04:58:18;;;;;;;;;;;;;;;;;;5063826;28;1197;-73
2022/05/29 05:00:44;;;;;;;;;;;;;;;;;;5071413;28;1111;-73
2022/05/29 05:03:11;;;;;;;;;;;;;;;;;;5071327;28;1063;-74
2022/05/29 05:05:37;;;;;;;;;;;;;;;;;;5069739;28;1985;-73
2022/05/29 05:08:04;;;;;;;;;;;;;;;;;;5071034;28;751;-73
2022/05/29 05:10:30;;;;;;;;;;;;;;;;;;5071224;28;1071;-73
2022/05/29 05:12:57;;;;;;;;;;;;;;;;;;5071060;28;939;-73
2022/05/29 05:15:23;;;;;;;;;;;;;;;;;;5075867;28;1606;-73
2022/05/29 05:17:50;;;;;;;;;;;;;;;;;;5090923;28;1128;-73
2022/05/29 05:20:16;;;;;;;;;;;;;;;;;;5091709;28;865;-74
2022/05/29 05:22:42;;;;;;;;;;;;;;;;;;5091255;28;1051;-73
2022/05/29 05:25:09;;;;;;;;;;;;;;;;;;5091286;28;1914;-73
2022/05/29 05:27:35;;;;;;;;;;;;;;;;;;5090829;28;1043;-73
2022/05/29 05:30:02;;;;;;;;;;;;;;;;;;5085803;28;1213;-73
2022/05/29 05:32:29;;;;;;;;;;;;;;;;;;5069700;28;1226;-74
2022/05/29 05:34:55;;;;;;;;;;;;;;;;;;5070484;28;1373;-73
2022/05/29 05:37:21;;;;;;;;;;;;;;;;;;5070764;28;839;-73
2022/05/29 05:39:47;;;;;;;;;;;;;;;;;;5070739;28;1047;-74
2022/05/29 05:42:13;;;;;;;;;;;;;;;;;;5070511;28;1087;-73
2022/05/29 05:44:40;;;;;;;;;;;;;;;;;;5069075;28;1914;-73
2022/05/29 05:47:08;;;;;;;;;;;;;;;;;;5070043;28;1071;-73
2022/05/29 05:49:36;;;;;;;;;;;;;;;;;;5070985;28;890;-73
2022/05/29 05:52:02;;;;;;;;;;;;;;;;;;5070510;28;937;-73
2022/05/29 05:54:30;;;;;;;;;;;;;;;;;;5070444;28;1020;-73
2022/05/29 05:56:56;;;;;;;;;;;;;;;;;;5068868;28;1231;-73
2022/05/29 05:59:22;;;;;;;;;;;;;;;;;;5070532;28;755;-73
2022/05/29 06:01:48;;;;;;;;;;;;;;;;;;5070463;28;1066;-73
2022/05/29 06:04:16;;;;;;;;;;;;;;;;;;5069734;28;1914;-73
2022/05/29 06:06:42;;;;;;;;;;;;;;;;;;5069606;28;1296;-73
2022/05/29 06:09:08;;;;;;;;;;;;;;;;;;5069055;28;1118;-73
2022/05/29 06:11:39;;;;;;;;;;;;;;;;;;5070228;28;727;-73
2022/05/29 06:14:05;;;;;;;;;;;;;;;;;;5070165;28;909;-73
2022/05/29 06:16:31;;;;;;;;;;;;;;;;;;5069932;28;1320;-73
2022/05/29 06:18:57;;;;;;;;;;;;;;;;;;5070287;28;1123;-73
2022/05/29 06:21:25;;;;;;;;;;;;;;;;;;5068961;28;1032;-73
2022/05/29 06:23:52;;;;;;;;;;;;;;;;;;5069885;28;786;-73
2022/05/29 06:26:18;;;;;;;;;;;;;;;;;;5068589;28;1926;-74
2022/05/29 06:28:44;;;;;;;;;;;;;;;;;;5070359;28;1127;-73
2022/05/29 06:31:11;;;;;;;;;;;;;;;;;;5070019;28;1225;-74
2022/05/29 06:33:37;;;;;;;;;;;;;;;;;;5073010;28;1399;-72
2022/05/29 06:36:07;;;;;;;;;;;;;;;;;;5090003;28;1401;-72
2022/05/29 06:38:35;;;;;;;;;;;;;;;;;;5090224;28;1319;-73
2022/05/29 06:41:01;;;;;;;;;;;;;;;;;;5088487;28;1233;-73
2022/05/29 06:43:27;;;;;;;;;;;;;;;;;;5090450;28;1373;-73
2022/05/29 06:45:56;;;;;;;;;;;;;;;;;;5088684;28;1934;-74
2022/05/29 06:48:22;;;;;;;;;;;;;;;;;;5089972;28;923;-73
2022/05/29 06:50:48;;;;;;;;;;;;;;;;;;5090186;28;1130;-73
2022/05/29 06:53:15;;;;;;;;;;;;;;;;;;5088665;28;838;-73
2022/05/29 06:55:43;;;;;;;;;;;;;;;;;;5090079;28;1405;-73
2022/05/29 06:58:10;;;;;;;;;;;;;;;;;;5089544;28;1372;-73
2022/05/29 07:09:03;;;;;;;;;;;;;;;;;;5027504;28;1176;-73
2022/05/29 07:11:31;;;;;;;;;;;;;;;;;;5027358;28;1111;-74
2022/05/29 07:13:57;;;;;;;;;;;;;;;;;;5055013;28;1371;-74
2022/05/29 07:16:24;;;;;;;;;;;;;;;;;;5090556;28;1428;-73
2022/05/29 07:18:50;;;;;;;;;;;;;;;;;;5092351;28;1198;-72
2022/05/29 07:21:17;;;;;;;;;;;;;;;;;;5093778;28;1119;-73
2022/05/29 07:23:43;;;;;;;;;;;;;;;;;;5092291;28;1115;-73
2022/05/29 07:26:09;;;;;;;;;;;;;;;;;;5093177;28;1988;-71
2022/05/29 07:28:37;;;;;;;;;;;;;;;;;;5093509;28;1083;-73
2022/05/29 07:31:04;;;;;;;;;;;;;;;;;;5079684;28;1169;-73
2022/05/29 07:33:30;;;;;;;;;;;;;;;;;;5073102;28;1079;-74
2022/05/29 07:35:56;;;;;;;;;;;;;;;;;;5072614;28;1292;-72
2022/05/29 07:38:22;;;;;;;;;;;;;;;;;;5072730;28;1118;-74
2022/05/29 07:40:49;;;;;;;;;;;;;;;;;;5072912;28;798;-73
2022/05/29 07:43:22;;;;;;;;;;;;;;;;;;5072934;28;1080;-74
2022/05/29 07:45:49;;;;;;;;;;;;;;;;;;5071339;28;1977;-73
2022/05/29 07:48:16;;;;;;;;;;;;;;;;;;5072698;28;1084;-73
2022/05/29 07:50:42;;;;;;;;;;;;;;;;;;5072811;28;1139;-74
2022/05/29 07:53:08;;;;;;;;;;;;;;;;;;5072405;28;712;-73
2022/05/29 07:55:35;;;;;;;;;;;;;;;;;;5072687;28;1313;-74
2022/05/29 07:58:01;;;;;;;;;;;;;;;;;;5071551;28;1113;-74
2022/05/29 08:00:27;;;;;;;;;;;;;;;;;;5073308;28;845;-74
2022/05/29 08:02:55;;;;;;;;;;;;;;;;;;5072993;28;810;-73
2022/05/29 08:05:21;;;;;;;;;;;;;;;;;;5073185;28;1914;-73
2022/05/29 08:07:48;;;;;;;;;;;;;;;;;;5072075;28;1968;-73
2022/05/29 08:10:15;;;;;;;;;;;;;;;;;;5051752;28;1280;-73
2022/05/29 08:12:41;;;;;;;;;;;;;;;;;;5052958;28;925;-73
2022/05/29 08:15:09;;;;;;;;;;;;;;;;;;5052525;28;1420;-75
2022/05/29 08:17:35;;;;;;;;;;;;;;;;;;5052788;28;806;-74
2022/05/29 08:20:03;;;;;;;;;;;;;;;;;;5052619;28;890;-73
2022/05/29 08:22:29;;;;;;;;;;;;;;;;;;5051596;28;1340;-73
2022/05/29 08:30:46;;;;;;;;;;;;;;;;;;5060564;28;1287;-74
2022/05/29 08:33:13;;;;;;;;;;;;;;;;;;5072269;28;794;-73
2022/05/29 08:35:41;;;;;;;;;;;;;;;;;;5072284;28;1296;-74
2022/05/29 08:38:07;;;;;;;;;;;;;;;;;;5070631;28;1039;-74
2022/05/29 08:40:34;;;;;;;;;;;;;;;;;;5072238;28;893;-74
2022/05/29 08:43:00;;;;;;;;;;;;;;;;;;5071997;28;1087;-71
2022/05/29 08:45:27;;;;;;;;;;;;;;;;;;5071802;28;1906;-73
2022/05/29 08:47:53;;;;;;;;;;;;;;;;;;5072018;28;1067;-73
2022/05/29 08:50:20;;;;;;;;;;;;;;;;;;5072402;28;786;-73
2022/05/29 08:52:50;;;;;;;;;;;;;;;;;;5071837;28;1040;-72
2022/05/29 08:55:28;;;;;;;;;;;;;;;;;;5072053;28;1348;-75
2022/05/29 08:57:59;;;;;;;;;;;;;;;;;;5076541;22;3731;-70
2022/05/29 09:00:28;;;;;;;;;;;;;;;;;;5060024;28;1169;-70
2022/05/29 09:02:56;;;;;;;;;;;;;;;;;;5062843;28;1201;-70
2022/05/29 09:05:25;;;;;;;;;;;;;;;;;;5053329;28;1914;-69
2022/05/29 09:07:53;;;;;;;;;;;;;;;;;;5043852;28;1314;-70
2022/05/29 09:10:21;;;;;;;;;;;;;;;;;;5071088;28;779;-69
2022/05/29 09:12:48;;;;;;;;;;;;;;;;;;5071130;28;850;-70
2022/05/29 09:15:15;;;;;;;;;;;;;;;;;;5071027;28;1119;-70
2022/05/29 09:17:42;;;;;;;;;;;;;;;;;;5071228;28;1306;-69
2022/05/29 09:20:10;;;;;;;;;;;;;;;;;;5070666;28;899;-70
2022/05/29 09:22:37;;;;;;;;;;;;;;;;;;5071261;28;1107;-71
2022/05/29 09:25:06;;;;;;;;;;;;;;;;;;5070770;28;1056;-70
2022/05/29 09:27:33;;;;;;;;;;;;;;;;;;5070618;28;1302;-71
2022/05/29 09:29:59;;;;;;;;;;;;;;;;;;5070624;28;1150;-70
2022/05/29 09:32:26;;;;;;;;;;;;;;;;;;5052882;28;1148;-71
2022/05/29 09:34:57;;;;;;;;;;;;;;;;;;5070778;28;1102;-70
2022/05/29 09:37:25;;;;;;;;;;;;;;;;;;5070685;28;1371;-70
2022/05/29 09:39:53;;;;;;;;;;;;;;;;;;5070084;28;941;-70
2022/05/29 09:42:21;;;;;;;;;;;;;;;;;;5070825;28;1177;-69
2022/05/29 09:45:03;;;;;;;;;;;;;;;;;;5070563;28;1106;-69
2022/05/29 09:50:17;;;;;;;;;;;;;;;;;;5070418;28;756;-70
2022/05/29 09:52:44;;;;;;;;;;;;;;;;;;5070353;28;1215;-70
2022/05/29 09:55:13;;;;;;;;;;;;;;;;;;5070336;28;778;-69
2022/05/29 09:57:42;;;;;;;;;;;;;;;;;;5069880;28;1380;-69
2022/05/29 10:00:11;;;;;;;;;;;;;;;;;;5070296;28;1096;-69
2022/05/29 10:02:39;;;;;;;;;;;;;;;;;;5070440;28;960;-69
2022/05/29 10:05:06;;;;;;;;;;;;;;;;;;5070347;28;1067;-70
2022/05/29 10:07:34;;;;;;;;;;;;;;;;;;5069688;28;1914;-69
2022/05/29 10:10:01;;;;;;;;;;;;;;;;;;5070221;28;977;-69
2022/05/29 10:12:37;;;;;;;;;;;;;;;;;;5070321;28;1041;-70
2022/05/29 10:15:05;;;;;;;;;;;;;;;;;;5069948;28;898;-70
2022/05/29 10:17:35;;;;;;;;;;;;;;;;;;5051845;28;1329;-70
2022/05/29 10:20:01;;;;;;;;;;;;;;;;;;5051760;28;1540;-69
2022/05/29 10:22:28;;;;;;;;;;;;;;;;;;5070266;28;1479;-69
2022/05/29 10:24:54;;;;;;;;;;;;;;;;;;5070534;28;1238;-69
2022/05/29 10:27:26;;;;;;;;;;;;;;;;;;5071839;28;1922;-71
2022/05/29 10:29:53;;;;;;;;;;;;;;;;;;5071084;28;1356;-68
2022/05/29 10:32:22;;;;;;;;;;;;;;;;;;5069710;28;779;-70
2022/05/29 10:34:49;;;;;;;;;;;;;;;;;;5070092;28;956;-70
2022/05/29 10:37:25;;;;;;;;;;;;;;;;;;5069661;28;1412;-70
2022/05/29 10:39:51;;;;;;;;;;;;;;;;;;5069892;28;1326;-70
2022/05/29 10:42:18;;;;;;;;;;;;;;;;;;5070101;28;783;-70
2022/05/29 10:44:44;;;;;;;;;;;;;;;;;;5069990;28;1112;-70
2022/05/29 10:47:16;;;;;;;;;;;;;;;;;;5069599;28;1914;-70
2022/05/29 10:49:45;;;;;;;;;;;;;;;;;;5069580;28;1032;-71
2022/05/29 10:52:20;;;;;;;;;;;;;;;;;;5072153;28;1127;-71
2022/05/29 10:55:14;;;;;;;;;;;;;;;;;;5073853;28;1072;-70
2022/05/29 10:57:44;;;;;;;;;;;;;;;;;;5014926;28;1339;-70
2022/05/29 11:00:13;;;;;;;;;;;;;;;;;;5073642;28;1119;-70
2022/05/29 11:05:40;;;;;;;;;;;;;;;;;;5073506;28;976;-70
2022/05/29 11:08:12;;;;;;;;;;;;;;;;;;5073096;28;1396;-71
2022/05/29 11:10:46;;;;;;;;;;;;;;;;;;5073431;28;862;-71
2022/05/29 11:13:16;;;;;;;;;;;;;;;;;;5073228;28;695;-71
2022/05/29 11:15:44;;;;;;;;;;;;;;;;;;5073489;28;1024;-70
2022/05/29 11:18:17;;;;;;;;;;;;;;;;;;5073071;28;1337;-70
2022/05/29 11:20:51;;;;;;;;;;;;;;;;;;5073426;28;1126;-70
2022/05/29 11:23:22;;;;;;;;;;;;;;;;;;5055107;28;1215;-71
2022/05/29 11:25:50;;;;;;;;;;;;;;;;;;5073143;28;1910;-70
2022/05/29 11:28:29;;;;;;;;;;;;;;;;;;5072995;28;1419;-70
2022/05/29 11:31:04;;;;;;;;;;;;;;;;;;5073013;28;1104;-70
2022/05/29 11:33:34;;;;;;;;;;;;;;;;;;5073101;28;1075;-70
2022/05/29 11:36:09;;;;;;;;;;;;;;;;;;5073123;28;846;-70
2022/05/29 11:38:46;;;;;;;;;;;;;;;;;;5072690;28;1332;-70
2022/05/29 11:41:14;;;;;;;;;;;;;;;;;;5072861;28;1130;-69
2022/05/29 11:43:45;;;;;;;;;;;;;;;;;;5073473;28;767;-69
2022/05/29 11:51:43;;;;;;;;;;;;;;;;;;5073465;28;952;-70
2022/05/29 11:54:12;;;;;;;;;;;;;;;;;;5072985;28;1178;-70
2022/05/29 11:56:39;;;;;;;;;;;;;;;;;;5072818;28;1328;-70
2022/05/29 11:59:09;;;;;;;;;;;;;;;;;;5054576;28;1160;-70
2022/05/29 12:01:38;;;;;;;;;;;;;;;;;;5072978;28;825;-71
2022/05/29 12:04:06;;;;;;;;;;;;;;;;;;5071355;28;1123;-70
2022/05/29 12:06:33;;;;;;;;;;;;;;;;;;5072713;28;1918;-70
2022/05/29 12:09:02;;;;;;;;;;;;;;;;;;5072671;28;1012;-70
2022/05/29 12:11:32;;;;;;;;;;;;;;;;;;5072684;28;1064;-70
2022/05/29 12:13:59;;;;;;;;;;;;;;;;;;5071576;28;1528;-69
2022/05/29 12:16:27;;;;;;;;;;;;;;;;;;5072433;28;683;-69
2022/05/29 12:18:53;;;;;;;;;;;;;;;;;;5072337;28;1306;-70
2022/05/29 12:21:21;;;;;;;;;;;;;;;;;;5072457;28;890;-69
2022/05/29 12:23:48;;;;;;;;;;;;;;;;;;5072341;28;1063;-71
2022/05/29 12:26:17;;;;;;;;;;;;;;;;;;5071954;28;1914;-70
2022/05/29 12:28:45;;;;;;;;;;;;;;;;;;5072338;28;1392;-70
2022/05/29 12:31:13;;;;;;;;;;;;;;;;;;5071949;28;1134;-70
2022/05/29 12:33:41;;;;;;;;;;;;;;;;;;5071929;28;1107;-70
2022/05/29 12:36:10;;;;;;;;;;;;;;;;;;5071787;28;934;-70
2022/05/29 12:38:41;;;;;;;;;;;;;;;;;;5072294;28;1409;-70
2022/05/29 12:41:18;;;;;;;;;;;;;;;;;;5072296;28;1114;-69
2022/05/29 12:43:54;;;;;;;;;;;;;;;;;;5072209;28;1067;-70
2022/05/29 12:46:28;;;;;;;;;;;;;;;;;;5072017;28;1914;-70
2022/05/29 12:49:03;;;;;;;;;;;;;;;;;;5071655;28;1366;-68
2022/05/29 12:51:42;;;;;;;;;;;;;;;;;;5071955;28;1039;-70
2022/05/29 12:54:23;;;;;;;;;;;;;;;;;;5071569;28;1209;-70
2022/05/29 12:56:58;;;;;;;;;;;;;;;;;;5071398;28;1269;-70
2022/05/29 12:59:29;;;;;;;;;;;;;;;;;;5071558;28;1135;-70
2022/05/29 13:02:02;;;;;;;;;;;;;;;;;;5071514;28;957;-71
2022/05/29 13:04:42;;;;;;;;;;;;;;;;;;5071406;28;1075;-70
2022/05/29 13:07:13;;;;;;;;;;;;;;;;;;5070887;28;1970;-70
2022/05/29 13:09:55;;;;;;;;;;;;;;;;;;5071716;28;1095;-69
2022/05/29 13:12:25;;;;;;;;;;;;;;;;;;5071452;28;1052;-70
2022/05/29 13:14:52;;;;;;;;;;;;;;;;;;5070856;28;922;-69
2022/05/29 13:17:22;;;;;;;;;;;;;;;;;;5071063;28;1410;-70
2022/05/29 13:19:56;;;;;;;;;;;;;;;;;;5071469;28;727;-70
2022/05/29 13:22:22;;;;;;;;;;;;;;;;;;5071115;28;929;-70
2022/05/29 13:24:48;;;;;;;;;;;;;;;;;;5070845;28;847;-70
2022/05/29 13:27:28;;;;;;;;;;;;;;;;;;5070625;28;1914;-70
2022/05/29 13:29:56;;;;;;;;;;;;;;;;;;5071097;28;1111;-70
2022/05/29 13:32:23;;;;;;;;;;;;;;;;;;5071082;28;932;-70
2022/05/29 13:34:49;;;;;;;;;;;;;;;;;;5070833;28;1079;-70
2022/05/29 13:37:22;;;;;;;;;;;;;;;;;;5070859;28;1380;-70
2022/05/29 13:39:52;;;;;;;;;;;;;;;;;;5072121;28;787;-70
2022/05/29 13:42:30;;;;;;;;;;;;;;;;;;5073628;28;1163;-71
2022/05/29 13:44:57;;;;;;;;;;;;;;;;;;5070999;28;1063;-71
2022/05/29 13:47:26;;;;;;;;;;;;;;;;;;5070368;28;2262;-71
2022/05/29 13:49:57;;;;;;;;;;;;;;;;;;5052554;28;1159;-71
2022/05/29 13:52:24;;;;;;;;;;;;;;;;;;5070486;28;1150;-71
2022/05/29 13:54:59;;;;;;;;;;;;;;;;;;5070474;28;1087;-70
2022/05/29 14:03:57;;;;;;;;;;;;;;;;;;5052054;28;1356;-70
2022/05/29 14:05:42;;;;;;;;;;;;;;;;;;5070152;28;1171;-70
2022/05/29 14:08:31;;;;;;;;;;;;;;;;;;5051868;28;1902;-70
2022/05/29 14:11:07;;;;;;;;;;;;;;;;;;5070012;28;575;-70
2022/05/29 14:13:35;;;;;;;;;;;;;;;;;;5070264;28;1060;-70
2022/05/29 14:16:04;;;;;;;;;;;;;;;;;;5069891;28;1126;-70
2022/05/29 14:18:32;;;;;;;;;;;;;;;;;;5070062;28;1432;-70
2022/05/29 14:21:10;;;;;;;;;;;;;;;;;;5069807;28;1401;-70
2022/05/29 14:23:52;;;;;;;;;;;;;;;;;;5052019;28;967;-69
2022/05/29 14:29:07;;;;;;;;;;;;;;;;;;5080460;28;1315;-71
2022/05/29 14:31:43;;;;;;;;;;;;;;;;;;5077602;28;1138;-70
2022/05/29 14:34:27;;;;;;;;;;;;;;;;;;5070125;28;1107;-69
2022/05/29 14:36:58;;;;;;;;;;;;;;;;;;5069203;28;1935;-70
2022/05/29 14:39:28;;;;;;;;;;;;;;;;;;5052205;28;1133;-69
2022/05/29 14:41:57;;;;;;;;;;;;;;;;;;5069851;28;802;-70
2022/05/29 14:44:25;;;;;;;;;;;;;;;;;;5069918;28;1226;-70
2022/05/29 14:47:00;;;;;;;;;;;;;;;;;;5069574;28;1914;-70
2022/05/29 14:49:27;;;;;;;;;;;;;;;;;;5069800;28;932;-71
2022/05/29 14:51:55;;;;;;;;;;;;;;;;;;5051699;28;838;-70
2022/05/29 14:54:22;;;;;;;;;;;;;;;;;;5070134;28;1072;-70
2022/05/29 14:56:57;;;;;;;;;;;;;;;;;;5069528;28;1312;-71
2022/05/29 14:59:23;;;;;;;;;;;;;;;;;;5069786;28;1072;-71
2022/05/29 15:01:51;;;;;;;;;;;;;;;;;;5070208;28;687;-70
2022/05/29 15:04:19;;;;;;;;;;;;;;;;;;5069775;28;1123;-70
2022/05/29 15:12:23;;;;;;;;;;;;;;;;;;5088786;28;1987;-73
2022/05/29 15:14:49;;;;;;;;;;;;;;;;;;5087697;28;1991;-71
2022/05/29 15:17:21;;;;;;;;;;;;;;;;;;5088448;28;1979;-71
2022/05/29 15:25:36;;;;;;;;;;;;;;;;;;5088266;28;1627;-73
2022/05/29 15:28:05;;;;;;;;;;;;;;;;;;5089394;28;1973;-73
2022/05/29 15:30:31;;;;;;;;;;;;;;;;;;5089919;28;1122;-73
2022/05/29 15:33:01;;;;;;;;;;;;;;;;;;5089664;28;992;-73
2022/05/29 15:35:29;;;;;;;;;;;;;;;;;;5089837;28;1091;-73
2022/05/29 15:37:58;;;;;;;;;;;;;;;;;;5091545;28;1412;-73
2022/05/29 15:40:29;;;;;;;;;;;;;;;;;;5093185;28;1135;-74
2022/05/29 15:43:05;;;;;;;;;;;;;;;;;;5092858;28;1139;-73
2022/05/29 15:45:35;;;;;;;;;;;;;;;;;;5093210;28;1261;-73
2022/05/29 15:48:05;;;;;;;;;;;;;;;;;;5091305;28;1914;-73
2022/05/29 15:50:38;;;;;;;;;;;;;;;;;;5092979;28;1075;-73
2022/05/29 15:53:15;;;;;;;;;;;;;;;;;;5092879;28;1059;-73
2022/05/29 15:55:42;;;;;;;;;;;;;;;;;;5092974;28;977;-73
2022/05/29 15:58:14;;;;;;;;;;;;;;;;;;5092408;28;1390;-74
2022/05/29 16:00:40;;;;;;;;;;;;;;;;;;5090892;28;2067;-74
2022/05/29 16:03:06;;;;;;;;;;;;;;;;;;5092222;28;1118;-73
2022/05/29 16:05:33;;;;;;;;;;;;;;;;;;5091615;28;1719;-74
2022/05/29 16:08:20;;;;;;;;;;;;;;;;;;5092158;28;1960;-73
2022/05/29 16:10:46;;;;;;;;;;;;;;;;;;5091077;28;1068;-73
2022/05/29 16:13:13;;;;;;;;;;;;;;;;;;5092298;28;818;-73
2022/05/29 16:15:49;;;;;;;;;;;;;;;;;;5092385;28;766;-75
2022/05/29 16:18:18;;;;;;;;;;;;;;;;;;5092201;28;1366;-72
2022/05/29 16:20:46;;;;;;;;;;;;;;;;;;5094911;28;1323;-71
2022/05/29 16:23:14;;;;;;;;;;;;;;;;;;5092167;28;881;-73
2022/05/29 16:25:41;;;;;;;;;;;;;;;;;;5092478;28;1059;-72
2022/05/29 16:28:11;;;;;;;;;;;;;;;;;;5090515;28;1922;-73
2022/05/29 16:30:42;;;;;;;;;;;;;;;;;;5092379;28;975;-73
2022/05/29 16:33:09;;;;;;;;;;;;;;;;;;5092173;28;1068;-73
2022/05/29 16:35:43;;;;;;;;;;;;;;;;;;5092405;28;1056;-73
2022/05/29 16:49:32;;;;;;;;;;;;;;;;;;5091282;28;1971;-73
2022/05/29 16:51:59;;;;;;;;;;;;;;;;;;5091571;28;819;-73
2022/05/29 16:54:28;;;;;;;;;;;;;;;;;;5092055;28;1020;-73
2022/05/29 16:57:01;;;;;;;;;;;;;;;;;;5091362;28;976;-72
2022/05/29 16:59:28;;;;;;;;;;;;;;;;;;5091704;28;1360;-73
2022/05/29 17:01:55;;;;;;;;;;;;;;;;;;5091460;28;1106;-73
2022/05/29 17:04:32;;;;;;;;;;;;;;;;;;5091649;28;819;-73
2022/05/29 17:07:05;;;;;;;;;;;;;;;;;;5091222;28;1071;-72
2022/05/29 17:09:44;;;;;;;;;;;;;;;;;;5091342;28;1980;-73
2022/05/29 17:12:12;;;;;;;;;;;;;;;;;;5091521;28;1119;-73
2022/05/29 17:14:39;;;;;;;;;;;;;;;;;;5091330;28;810;-72
2022/05/29 17:17:05;;;;;;;;;;;;;;;;;;5089848;28;1465;-73
2022/05/29 17:19:32;;;;;;;;;;;;;;;;;;5090006;28;1408;-73
2022/05/29 17:22:00;;;;;;;;;;;;;;;;;;5091142;28;1074;-74
2022/05/29 17:24:27;;;;;;;;;;;;;;;;;;5091209;28;1102;-73
2022/05/29 17:26:56;;;;;;;;;;;;;;;;;;5090894;28;1059;-73
2022/05/29 17:29:26;;;;;;;;;;;;;;;;;;5089730;28;2420;-73
2022/05/29 17:31:59;;;;;;;;;;;;;;;;;;5089607;28;1111;-74
2022/05/29 17:34:26;;;;;;;;;;;;;;;;;;5091298;28;1071;-71
2022/05/29 17:36:54;;;;;;;;;;;;;;;;;;5091119;28;1250;-74
2022/05/29 17:39:23;;;;;;;;;;;;;;;;;;5091063;28;1380;-73
2022/05/29 17:41:49;;;;;;;;;;;;;;;;;;5091234;28;1118;-73
2022/05/29 17:44:15;;;;;;;;;;;;;;;;;;5091092;28;900;-73
2022/05/29 17:46:54;;;;;;;;;;;;;;;;;;5091166;28;1003;-73
2022/05/29 17:49:27;;;;;;;;;;;;;;;;;;5090893;28;1985;-73
2022/05/29 17:51:57;;;;;;;;;;;;;;;;;;5090489;28;1139;-73
2022/05/29 17:54:24;;;;;;;;;;;;;;;;;;5091033;28;762;-73
2022/05/29 17:56:50;;;;;;;;;;;;;;;;;;5090556;28;1111;-73
2022/05/29 17:59:16;;;;;;;;;;;;;;;;;;5090759;28;1419;-73
2022/05/29 18:01:44;;;;;;;;;;;;;;;;;;5089691;28;1292;-73
2022/05/29 18:04:12;;;;;;;;;;;;;;;;;;5090673;28;973;-73
2022/05/29 18:06:38;;;;;;;;;;;;;;;;;;5090529;28;1270;-73
2022/05/29 18:09:04;;;;;;;;;;;;;;;;;;5090299;28;1975;-73
2022/05/29 18:11:31;;;;;;;;;;;;;;;;;;5090500;28;977;-74
2022/05/29 18:13:57;;;;;;;;;;;;;;;;;;5090349;28;798;-73
2022/05/29 18:16:23;;;;;;;;;;;;;;;;;;5089029;28;1277;-73
2022/05/29 18:18:50;;;;;;;;;;;;;;;;;;5092934;28;1600;-73